Time;durP1;ratioP1;P1;durP2;ratioP2;P2;SDS_P1;SDS_P2;PMS_P1;PMS_P2;Temp;Humidity;BMP_temperature;BMP_pressure;BME280_temperature;BME280_humidity;BME280_pressure;Samples;Min_cycle;Max_cycle;Signal;HPM_P1;HPM_P2
2021/04/01 00:01:32;;;;;;;61.97;36.30;;;19.00;39.20;;;;;;4997201;28;20121;-70
2021/04/01 00:03:58;;;;;;;63.33;37.70;;;18.90;39.10;;;;;;5002027;28;20037;-66
2021/04/01 00:06:24;;;;;;;62.95;36.33;;;19.00;39.10;;;;;;5003584;28;20561;-70
2021/04/01 00:08:49;;;;;;;62.55;37.28;;;18.90;39.00;;;;;;5003641;28;20038;-70
2021/04/01 00:11:15;;;;;;;66.55;37.55;;;18.90;39.30;;;;;;5006596;28;20042;-69
2021/04/01 00:13:41;;;;;;;70.18;36.15;;;18.90;39.50;;;;;;5006116;28;20412;-70
2021/04/01 00:16:06;;;;;;;58.30;35.00;;;18.90;39.50;;;;;;5007352;28;20058;-70
2021/04/01 00:18:32;;;;;;;67.80;36.63;;;18.90;39.70;;;;;;5004467;28;20470;-69
2021/04/01 00:20:57;;;;;;;64.57;35.22;;;18.90;40.00;;;;;;5005929;28;20029;-70
2021/04/01 00:23:23;;;;;;;65.47;36.55;;;18.80;39.90;;;;;;4994749;28;20116;-70
2021/04/01 00:25:49;;;;;;;63.78;36.42;;;18.80;40.10;;;;;;5001359;28;20125;-69
2021/04/01 00:28:15;;;;;;;58.88;34.92;;;18.80;40.30;;;;;;4990704;28;20038;-69
2021/04/01 00:30:41;;;;;;;60.97;34.63;;;18.80;40.20;;;;;;5016421;28;20038;-69
2021/04/01 00:33:06;;;;;;;58.60;34.60;;;18.70;40.10;;;;;;4999249;28;20034;-69
2021/04/01 00:35:32;;;;;;;59.05;35.03;;;18.70;40.10;;;;;;5004511;28;20029;-70
2021/04/01 00:37:58;;;;;;;59.97;34.53;;;18.70;40.30;;;;;;4997685;28;20466;-69
2021/04/01 00:40:24;;;;;;;61.58;35.58;;;18.70;40.30;;;;;;4997154;28;20112;-69
2021/04/01 00:42:50;;;;;;;60.00;32.53;;;18.60;40.40;;;;;;5000668;28;20072;-69
2021/04/01 00:45:16;;;;;;;56.13;32.42;;;18.60;40.60;;;;;;4995374;28;20463;-69
2021/04/01 00:47:49;;;;;;;56.95;32.58;;;18.60;40.90;;;;;;4996935;28;20050;-69
2021/04/01 00:50:19;;;;;;;62.60;33.40;;;18.60;41.20;;;;;;4995831;28;20034;-69
2021/04/01 00:52:45;;;;;;;58.38;33.15;;;18.50;40.90;;;;;;5001805;28;20045;-69
2021/04/01 00:55:11;;;;;;;54.72;32.13;;;18.50;41.30;;;;;;4997983;28;20433;-69
2021/04/01 00:57:40;;;;;;;52.15;32.10;;;18.50;41.20;;;;;;5003625;28;20049;-70
2021/04/01 01:00:08;;;;;;;50.00;31.75;;;18.40;41.20;;;;;;5001672;28;20533;-68
2021/04/01 01:02:34;;;;;;;55.90;32.92;;;18.50;41.50;;;;;;4998941;28;20052;-69
2021/04/01 01:05:01;;;;;;;58.22;33.20;;;18.40;41.40;;;;;;4995224;28;20046;-68
2021/04/01 01:07:27;;;;;;;60.85;33.70;;;18.40;41.50;;;;;;5002246;28;20056;-69
2021/04/01 01:09:52;;;;;;;54.75;32.35;;;18.40;41.70;;;;;;4995490;28;20034;-68
2021/04/01 01:12:18;;;;;;;64.00;33.88;;;18.40;41.20;;;;;;5007122;28;20045;-69
2021/04/01 01:14:43;;;;;;;53.30;33.45;;;18.40;41.40;;;;;;5002261;28;20038;-69
2021/04/01 01:17:09;;;;;;;60.35;36.63;;;18.30;41.60;;;;;;5007039;28;20041;-70
2021/04/01 01:19:39;;;;;;;61.72;35.80;;;18.30;41.20;;;;;;4996170;28;20045;-69
2021/04/01 01:22:06;;;;;;;56.35;33.75;;;18.30;41.50;;;;;;5008215;28;20488;-68
2021/04/01 01:24:33;;;;;;;62.15;35.42;;;18.30;41.60;;;;;;5009271;28;20388;-69
2021/04/01 01:27:00;;;;;;;58.65;36.00;;;18.20;41.50;;;;;;5008949;28;20103;-64
2021/04/01 01:29:26;;;;;;;61.72;35.85;;;18.20;41.40;;;;;;5009409;28;20042;-70
2021/04/01 01:31:51;;;;;;;59.83;35.38;;;18.10;41.40;;;;;;5004480;28;20099;-69
2021/04/01 01:34:18;;;;;;;60.33;36.33;;;18.10;41.20;;;;;;5007924;28;20034;-69
2021/04/01 01:36:44;;;;;;;58.22;35.80;;;18.10;41.60;;;;;;5003168;28;20042;-69
2021/04/01 01:39:10;;;;;;;64.65;36.65;;;18.10;41.50;;;;;;5006646;28;20153;-70
2021/04/01 01:41:36;;;;;;;60.90;36.30;;;18.10;41.60;;;;;;4997874;28;20212;-69
2021/04/01 01:44:02;;;;;;;56.63;35.40;;;18.10;41.40;;;;;;5006257;28;20078;-68
2021/04/01 01:46:28;;;;;;;62.10;37.72;;;18.00;41.70;;;;;;5002124;28;20656;-70
2021/04/01 01:48:56;;;;;;;59.05;37.50;;;18.00;41.60;;;;;;4999225;28;20038;-69
2021/04/01 01:51:22;;;;;;;57.53;37.13;;;18.00;41.60;;;;;;5001107;28;20121;-69
2021/04/01 01:53:47;;;;;;;54.75;35.42;;;18.00;41.60;;;;;;5008446;28;20125;-69
2021/04/01 01:56:21;;;;;;;55.58;35.25;;;18.00;41.60;;;;;;5004825;28;20042;-69
2021/04/01 01:58:48;;;;;;;52.30;35.25;;;17.90;41.70;;;;;;5009935;28;20045;-70
2021/04/01 02:01:15;;;;;;;61.30;35.97;;;17.90;41.80;;;;;;5004973;28;20052;-70
2021/04/01 02:03:41;;;;;;;57.28;36.17;;;17.80;41.80;;;;;;5010849;28;20491;-69
2021/04/01 02:06:10;;;;;;;54.15;35.50;;;17.80;41.60;;;;;;5006577;28;20045;-69
2021/04/01 02:08:36;;;;;;;60.55;36.42;;;17.90;42.00;;;;;;5003215;28;20038;-70
2021/04/01 02:11:02;;;;;;;60.10;38.17;;;17.80;41.80;;;;;;5000598;28;20049;-70
2021/04/01 02:13:27;;;;;;;56.35;36.55;;;17.90;41.80;;;;;;5000317;28;20030;-70
2021/04/01 02:15:56;;;;;;;62.05;37.10;;;17.80;42.00;;;;;;5003571;28;20517;-69
2021/04/01 02:18:25;;;;;;;61.67;37.85;;;17.80;42.00;;;;;;4996412;28;20467;-69
2021/04/01 02:20:52;;;;;;;60.72;36.72;;;17.70;42.10;;;;;;5007518;28;20049;-69
2021/04/01 02:23:20;;;;;;;53.70;36.85;;;17.70;42.20;;;;;;5003098;28;20041;-70
2021/04/01 02:25:47;;;;;;;56.50;35.55;;;17.70;42.00;;;;;;5006142;28;20038;-69
2021/04/01 02:28:14;;;;;;;60.58;37.85;;;17.80;42.10;;;;;;4998343;28;20058;-68
2021/04/01 02:30:41;;;;;;;58.65;36.95;;;17.60;42.10;;;;;;5005850;28;20098;-70
2021/04/01 02:33:08;;;;;;;61.38;36.60;;;17.70;42.30;;;;;;5000245;28;20372;-68
2021/04/01 02:35:34;;;;;;;55.67;36.67;;;17.60;42.30;;;;;;5006694;28;20037;-69
2021/04/01 02:37:59;;;;;;;55.35;37.03;;;17.60;42.20;;;;;;4998547;28;20029;-65
2021/04/01 02:40:25;;;;;;;60.15;37.72;;;17.60;42.30;;;;;;5002216;28;20472;-69
2021/04/01 02:42:52;;;;;;;55.67;36.78;;;17.60;42.60;;;;;;5000799;28;20033;-70
2021/04/01 02:45:17;;;;;;;54.85;35.83;;;17.50;42.20;;;;;;5004275;28;20049;-69
2021/04/01 02:47:43;;;;;;;55.17;37.03;;;17.50;42.60;;;;;;5000739;28;20061;-69
2021/04/01 02:50:10;;;;;;;56.95;36.30;;;17.50;42.50;;;;;;4996257;28;20601;-69
2021/04/01 02:52:36;;;;;;;53.30;34.78;;;17.50;42.60;;;;;;5009320;28;20392;-68
2021/04/01 02:55:04;;;;;;;56.08;36.20;;;17.50;42.90;;;;;;5004846;28;20049;-68
2021/04/01 02:57:29;;;;;;;53.38;35.45;;;17.50;42.80;;;;;;5008282;28;20073;-59
2021/04/01 02:59:56;;;;;;;54.42;34.55;;;17.40;42.60;;;;;;5003391;28;20119;-69
2021/04/01 03:02:23;;;;;;;55.90;35.85;;;17.40;43.20;;;;;;5004568;28;20038;-69
2021/04/01 03:04:48;;;;;;;58.65;36.97;;;17.40;42.90;;;;;;5003849;28;20400;-70
2021/04/01 03:07:14;;;;;;;54.85;35.83;;;17.40;42.70;;;;;;5005143;28;20046;-69
2021/04/01 03:09:39;;;;;;;52.25;34.53;;;17.50;42.70;;;;;;5002189;28;20096;-69
2021/04/01 03:12:06;;;;;;;54.00;34.80;;;17.40;42.90;;;;;;5006939;28;20465;-69
2021/04/01 03:14:32;;;;;;;46.53;32.78;;;17.40;43.20;;;;;;5001103;28;20100;-69
2021/04/01 03:16:58;;;;;;;55.80;34.05;;;17.30;43.20;;;;;;5009591;28;20049;-70
2021/04/01 03:19:24;;;;;;;51.08;35.72;;;17.30;43.10;;;;;;4994875;28;20037;-70
2021/04/01 03:21:49;;;;;;;52.90;33.40;;;17.30;43.30;;;;;;5007581;28;20046;-70
2021/04/01 03:24:16;;;;;;;50.63;33.92;;;17.30;43.20;;;;;;5002528;28;20049;-70
2021/04/01 03:26:42;;;;;;;55.55;33.67;;;17.30;43.10;;;;;;5004960;28;20428;-69
2021/04/01 03:29:08;;;;;;;53.08;35.28;;;17.30;43.00;;;;;;5002774;28;20049;-69
2021/04/01 03:31:34;;;;;;;47.08;32.58;;;17.30;43.10;;;;;;4998576;28;20155;-69
2021/04/01 03:34:00;;;;;;;50.47;32.00;;;17.30;43.10;;;;;;5002426;28;20067;-69
2021/04/01 03:36:26;;;;;;;48.85;32.58;;;17.30;43.40;;;;;;5001324;28;20081;-69
2021/04/01 03:38:52;;;;;;;55.80;35.08;;;17.20;43.30;;;;;;5002292;28;20045;-70
2021/04/01 03:41:18;;;;;;;54.20;34.60;;;17.20;43.30;;;;;;5001756;28;20034;-70
2021/04/01 03:43:44;;;;;;;50.92;34.90;;;17.20;43.50;;;;;;5000454;28;20046;-69
2021/04/01 03:46:11;;;;;;;52.17;33.47;;;17.20;43.70;;;;;;5003357;28;20038;-70
2021/04/01 03:48:37;;;;;;;55.28;34.90;;;17.20;43.50;;;;;;5004004;28;20433;-70
2021/04/01 03:51:03;;;;;;;49.92;32.58;;;17.20;43.40;;;;;;5003513;28;20060;-69
2021/04/01 03:53:28;;;;;;;57.30;33.70;;;17.10;43.70;;;;;;5003815;28;20092;-70
2021/04/01 03:55:54;;;;;;;52.50;34.30;;;17.20;43.50;;;;;;5004445;28;20116;-70
2021/04/01 04:03:43;;;;;;;53.10;33.83;;;17.10;43.80;;;;;;4993926;28;20479;-69
2021/04/01 04:16:17;;;;;;;50.95;33.83;;;17.10;44.40;;;;;;5003503;28;20042;-69
2021/04/01 04:18:43;;;;;;;57.47;33.88;;;17.00;43.80;;;;;;4992449;28;20039;-70
2021/04/01 04:21:09;;;;;;;53.83;35.10;;;17.10;44.00;;;;;;4996764;28;20117;-70
2021/04/01 04:23:37;;;;;;;55.78;35.10;;;17.10;44.10;;;;;;5001667;28;20129;-69
2021/04/01 04:26:03;;;;;;;53.95;33.28;;;17.00;44.00;;;;;;5005623;28;20042;-69
2021/04/01 04:28:33;;;;;;;59.83;35.53;;;17.00;44.20;;;;;;5007945;28;20038;-70
2021/04/01 04:31:00;;;;;;;55.15;34.30;;;17.10;44.20;;;;;;5006363;28;20034;-70
2021/04/01 04:33:26;;;;;;;58.92;35.83;;;17.10;44.20;;;;;;4997715;28;20054;-70
2021/04/01 04:35:52;;;;;;;51.22;34.00;;;17.10;44.10;;;;;;5006745;28;20056;-70
2021/04/01 04:38:18;;;;;;;52.00;34.47;;;17.10;44.30;;;;;;5001925;28;20563;-70
2021/04/01 04:40:43;;;;;;;54.03;34.03;;;17.00;44.40;;;;;;5003818;28;20050;-70
2021/04/01 04:43:09;;;;;;;49.25;33.08;;;17.00;44.60;;;;;;5003946;28;20042;-70
2021/04/01 04:45:35;;;;;;;52.70;33.00;;;17.00;44.70;;;;;;5007437;28;20042;-69
2021/04/01 04:48:00;;;;;;;52.35;33.28;;;17.00;44.60;;;;;;5001844;28;20140;-68
2021/04/01 04:50:26;;;;;;;54.17;33.15;;;17.00;44.50;;;;;;5001469;28;20068;-70
2021/04/01 04:52:51;;;;;;;52.58;34.25;;;17.00;44.80;;;;;;4993957;28;20041;-70
2021/04/01 04:55:18;;;;;;;46.72;31.45;;;17.00;44.80;;;;;;5000521;28;20654;-70
2021/04/01 04:57:49;;;;;;;54.60;32.97;;;17.00;44.80;;;;;;5001152;28;20165;-70
2021/04/01 05:00:37;;;;;;;54.75;33.63;;;17.00;45.10;;;;;;4997259;28;20057;-70
2021/04/01 05:05:47;;;;;;;53.33;33.55;;;17.00;44.40;;;;;;5004553;28;20045;-70
2021/04/01 05:08:13;;;;;;;55.55;34.67;;;17.00;44.50;;;;;;5007617;28;20054;-70
2021/04/01 05:10:38;;;;;;;47.78;33.00;;;17.00;44.40;;;;;;4994949;28;20038;-69
2021/04/01 05:15:30;;;;;;;52.05;33.15;;;17.00;44.90;;;;;;5002163;28;20064;-70
2021/04/01 05:18:07;;;;;;;53.88;34.97;;;17.00;44.90;;;;;;5006821;28;20045;-70
2021/04/01 05:20:33;;;;;;;51.47;32.92;;;17.00;44.80;;;;;;4998758;28;20068;-70
2021/04/01 05:23:05;;;;;;;53.22;33.90;;;17.00;45.10;;;;;;5005437;28;20113;-70
2021/04/01 05:25:32;;;;;;;56.22;35.00;;;17.00;45.00;;;;;;4999000;28;20396;-69
2021/04/01 05:28:22;;;;;;;55.92;35.50;;;17.00;45.10;;;;;;5002749;28;20046;-70
2021/04/01 05:30:48;;;;;;;53.15;34.70;;;17.00;46.30;;;;;;4983124;28;20446;-70
2021/04/01 05:33:15;;;;;;;55.80;34.63;;;17.00;46.20;;;;;;5007162;28;20033;-70
2021/04/01 05:35:40;;;;;;;52.33;35.72;;;16.90;46.00;;;;;;5003868;28;20042;-70
2021/04/01 05:38:06;;;;;;;53.42;34.20;;;16.90;46.10;;;;;;5003092;28;20037;-69
2021/04/01 05:40:33;;;;;;;55.85;35.78;;;17.00;46.40;;;;;;4999471;28;20125;-69
2021/04/01 05:43:07;;;;;;;59.10;37.08;;;16.90;46.40;;;;;;5005608;28;20039;-70
2021/04/01 05:45:46;;;;;;;53.20;37.97;;;16.90;46.40;;;;;;4999933;28;20523;-70
2021/04/01 05:48:26;;;;;;;56.70;36.20;;;16.80;46.30;;;;;;5005765;28;20400;-70
2021/04/01 05:51:14;;;;;;;63.15;38.33;;;16.90;46.50;;;;;;4999785;28;20549;-71
2021/04/01 05:56:46;;;;;;;65.88;40.83;;;16.80;46.70;;;;;;5002901;28;20037;-71
2021/04/01 06:02:11;;;;;;;58.75;38.05;;;16.90;46.60;;;;;;5005253;28;20041;-71
2021/04/01 06:04:38;;;;;;;53.30;38.22;;;16.90;46.50;;;;;;4985734;28;20403;-71
2021/04/01 06:07:12;;;;;;;66.82;42.00;;;16.90;46.70;;;;;;5007648;28;20451;-70
2021/04/01 06:09:44;;;;;;;67.15;41.10;;;16.90;46.40;;;;;;5008825;28;20042;-70
2021/04/01 06:12:10;;;;;;;62.67;41.17;;;16.90;47.00;;;;;;5007467;28;20103;-70
2021/04/01 06:14:52;;;;;;;58.13;40.47;;;16.90;46.50;;;;;;5013976;28;20034;-71
2021/04/01 06:17:19;;;;;;;62.03;42.08;;;16.90;46.70;;;;;;5013309;28;20053;-71
2021/04/01 06:19:48;;;;;;;62.47;41.25;;;16.90;46.40;;;;;;4981472;28;20044;-70
2021/04/01 06:22:14;;;;;;;64.47;42.45;;;16.90;46.30;;;;;;5003850;28;20038;-70
2021/04/01 06:24:43;;;;;;;67.13;43.85;;;17.00;45.80;;;;;;5003382;28;20042;-71
2021/04/01 06:29:42;;;;;;;68.53;45.03;;;17.10;45.70;;;;;;5003421;28;20042;-70
2021/04/01 06:32:24;;;;;;;76.38;45.33;;;17.10;45.40;;;;;;5009883;28;20046;-70
2021/04/01 06:34:50;;;;;;;71.45;44.08;;;17.10;45.30;;;;;;5004610;28;20487;-71
2021/04/01 06:37:54;;;;;;;69.03;45.05;;;17.10;45.30;;;;;;5008172;28;20121;-71
2021/04/01 06:40:17;;;;;;;74.43;46.55;;;17.20;45.20;;;;;;4982165;28;20034;-71
2021/04/01 06:42:53;;;;;;;68.85;45.63;;;17.20;45.10;;;;;;5007713;28;20041;-71
2021/04/01 06:45:24;;;;;;;78.32;47.50;;;17.30;45.20;;;;;;5001308;28;20077;-71
2021/04/01 06:47:56;;;;;;;67.57;43.75;;;17.40;44.50;;;;;;5003759;28;20056;-71
2021/04/01 06:50:27;;;;;;;70.80;43.92;;;17.40;44.60;;;;;;4993352;28;20038;-71
2021/04/01 06:53:03;;;;;;;68.47;44.10;;;17.40;44.20;;;;;;5007430;28;20100;-70
2021/04/01 06:55:39;;;;;;;67.35;42.88;;;17.50;44.20;;;;;;4978766;28;20049;-71
2021/04/01 07:01:06;;;;;;;72.65;41.65;;;17.70;43.40;;;;;;5001531;28;20042;-70
2021/04/01 07:03:39;;;;;;;67.90;42.10;;;17.70;43.10;;;;;;4987464;28;20038;-70
2021/04/01 07:06:18;;;;;;;74.63;43.25;;;17.80;43.40;;;;;;5005516;28;20495;-70
2021/04/01 07:11:41;;;;;;;69.68;42.28;;;17.90;43.00;;;;;;4999465;28;20051;-70
2021/04/01 07:14:11;;;;;;;76.47;42.88;;;17.90;42.30;;;;;;4997803;28;21061;-70
2021/04/01 07:16:46;;;;;;;67.57;41.33;;;18.00;42.30;;;;;;4989357;28;20147;-70
2021/04/01 07:47:21;;;;;;;64.32;36.80;;;18.90;38.60;;;;;;4985553;28;20301;-70
2021/04/01 07:49:48;;;;;;;62.28;35.53;;;18.90;38.20;;;;;;4997726;28;20514;-70
2021/04/01 07:52:18;;;;;;;61.20;34.38;;;19.10;38.00;;;;;;4991925;28;20294;-70
2021/04/01 08:00:27;;;;;;;55.42;33.53;;;19.20;36.10;;;;;;4959313;28;20411;-70
2021/04/01 08:03:21;;;;;;;61.55;33.22;;;19.30;36.80;;;;;;4996456;28;20049;-71
2021/04/01 08:05:48;;;;;;;64.30;33.67;;;19.40;37.70;;;;;;4977003;28;20129;-70
2021/04/01 08:08:19;;;;;;;58.20;33.78;;;19.50;36.90;;;;;;4992116;28;20048;-70
2021/04/01 08:10:47;;;;;;;59.38;33.17;;;19.50;35.60;;;;;;4995957;28;20510;-70
2021/04/01 08:13:15;;;;;;;57.17;32.53;;;19.50;36.50;;;;;;4993812;28;20045;-70
2021/04/01 08:15:48;;;;;;;62.65;33.78;;;19.50;36.40;;;;;;4997069;28;20464;-70
2021/04/01 08:20:44;;;;;;;62.97;33.78;;;19.60;36.00;;;;;;4995476;28;20042;-70
2021/04/01 08:23:17;;;;;;;56.42;33.83;;;19.60;36.40;;;;;;4998874;28;20484;-70
2021/04/01 08:36:01;;;;;;;57.72;31.48;;;19.70;35.50;;;;;;5000293;28;20513;-70
2021/04/01 08:38:28;;;;;;;55.70;30.90;;;19.70;35.30;;;;;;5005417;28;20152;-69
2021/04/01 08:40:58;;;;;;;56.00;30.95;;;19.60;34.60;;;;;;5000966;28;20087;-70
2021/04/01 08:43:56;;;;;;;51.65;29.85;;;19.70;35.30;;;;;;5005993;28;20030;-71
2021/04/01 08:46:52;;;;;;;51.63;30.00;;;19.80;34.90;;;;;;4973036;28;20038;-70
2021/04/01 08:49:35;;;;;;;53.60;30.08;;;19.80;34.40;;;;;;4980856;28;20495;-70
2021/04/01 08:52:34;;;;;;;61.05;33.40;;;19.80;34.80;;;;;;4981311;28;20042;-70
2021/04/01 08:55:11;;;;;;;56.85;33.63;;;19.80;34.80;;;;;;5000165;28;20059;-70
2021/04/01 08:57:58;;;;;;;58.85;33.53;;;19.90;35.60;;;;;;5008312;28;20238;-70
2021/04/01 09:00:28;;;;;;;56.90;33.28;;;19.90;35.30;;;;;;4999733;28;20127;-70
2021/04/01 09:02:54;;;;;;;57.45;32.67;;;19.90;35.10;;;;;;5003874;28;20030;-70
2021/04/01 09:05:20;;;;;;;53.05;32.33;;;19.90;35.30;;;;;;5002029;28;20381;-71
2021/04/01 09:07:53;;;;;;;67.90;35.83;;;20.00;35.00;;;;;;5006770;28;20159;-69
2021/04/01 09:10:21;;;;;;;55.03;33.88;;;20.00;34.60;;;;;;5001901;28;20172;-70
2021/04/01 09:15:39;;;;;;;58.28;32.90;;;20.10;34.60;;;;;;5003385;28;20042;-71
2021/04/01 09:18:06;;;;;;;61.60;38.10;;;20.20;34.90;;;;;;4982555;28;20119;-74
2021/04/01 09:20:32;;;;;;;58.55;35.90;;;20.20;34.70;;;;;;4996851;28;20309;-67
2021/04/01 09:23:08;;;;;;;67.93;38.55;;;20.40;34.60;;;;;;4985846;28;20045;-66
2021/04/01 09:25:44;;;;;;;63.88;37.25;;;20.40;35.10;;;;;;4993254;28;20598;-67
2021/04/01 09:28:12;;;;;;;55.17;34.30;;;20.50;34.10;;;;;;4990854;28;20117;-66
2021/04/01 09:30:39;;;;;;;54.22;31.85;;;20.50;33.90;;;;;;4991871;28;20100;-68
2021/04/01 09:33:10;;;;;;;59.35;34.00;;;20.60;34.00;;;;;;4991364;28;20053;-62
2021/04/01 09:35:39;;;;;;;52.17;28.63;;;20.70;34.00;;;;;;4996892;28;20038;-67
2021/04/01 09:38:09;;;;;;;55.55;32.80;;;20.70;32.80;;;;;;4994432;28;20038;-66
2021/04/01 09:40:39;;;;;;;55.70;32.15;;;20.90;33.20;;;;;;4997797;28;20125;-63
2021/04/01 09:43:15;;;;;;;49.92;30.90;;;20.80;31.80;;;;;;4992157;28;20069;-63
2021/04/01 09:45:41;;;;;;;57.83;31.80;;;20.00;33.40;;;;;;4999355;28;20094;-70
2021/04/01 09:48:08;;;;;;;54.65;30.83;;;21.00;33.10;;;;;;4994150;28;20141;-61
2021/04/01 09:50:37;;;;;;;56.38;32.10;;;21.00;33.20;;;;;;4999244;28;20035;-62
2021/04/01 09:53:14;;;;;;;56.17;30.85;;;21.10;33.00;;;;;;4992239;28;20077;-61
2021/04/01 09:55:42;;;;;;;55.00;30.00;;;21.20;47.90;;;;;;5003858;28;20598;-62
2021/04/01 09:58:22;;;;;;;62.40;34.33;;;21.30;46.40;;;;;;4987178;28;20062;-62
2021/04/01 10:03:22;;;;;;;53.88;33.42;;;21.40;32.80;;;;;;4994868;28;20037;-61
2021/04/01 10:05:49;;;;;;;59.90;34.22;;;21.50;32.70;;;;;;5000859;28;20030;-61
2021/04/01 10:08:25;;;;;;;57.53;32.40;;;21.50;32.60;;;;;;4998374;28;20034;-61
2021/04/01 10:10:53;;;;;;;64.00;34.60;;;21.70;33.30;;;;;;5003099;28;20669;-61
2021/04/01 10:13:22;;;;;;;64.90;33.67;;;;;;;;;;4992935;28;20072;-61
2021/04/01 10:15:49;;;;;;;59.95;34.08;;;21.80;32.40;;;;;;4995499;28;20533;-61
2021/04/01 10:18:39;;;;;;;61.35;33.47;;;21.80;32.30;;;;;;4998040;28;20122;-61
2021/04/01 10:21:10;;;;;;;56.70;33.50;;;21.90;32.40;;;;;;4981100;28;20510;-61
2021/04/01 10:24:07;;;;;;;59.55;34.40;;;22.00;32.10;;;;;;4998371;28;20037;-61
2021/04/01 10:26:42;;;;;;;58.38;32.28;;;22.20;31.80;;;;;;4972908;28;20120;-61
2021/04/01 10:29:14;;;;;;;54.17;31.27;;;22.20;32.10;;;;;;5000592;28;20168;-62
2021/04/01 10:31:46;;;;;;;55.90;29.58;;;22.30;31.60;;;;;;5002729;28;20049;-62
2021/04/01 10:34:51;;;;;;;53.70;30.30;;;22.40;34.00;;;;;;4992005;28;20499;-61
2021/04/01 10:37:20;;;;;;;58.95;30.95;;;22.60;31.10;;;;;;4972419;28;20042;-61
2021/04/01 10:39:45;;;;;;;56.90;31.30;;;22.70;31.70;;;;;;4991818;28;20053;-62
2021/04/01 10:42:13;;;;;;;56.38;33.33;;;22.60;31.10;;;;;;4997291;28;20404;-61
2021/04/01 10:44:41;;;;;;;51.95;31.40;;;22.80;31.30;;;;;;4989502;28;20065;-61
2021/04/01 10:47:13;;;;;;;56.47;30.98;;;22.90;31.30;;;;;;4995456;28;20062;-61
2021/04/01 10:49:40;;;;;;;54.15;29.52;;;23.10;45.60;;;;;;4991193;28;20166;-61
2021/04/01 10:52:09;;;;;;;58.75;30.17;;;23.00;30.60;;;;;;4997835;28;20364;-62
2021/04/01 10:54:40;;;;;;;58.20;31.13;;;23.20;30.20;;;;;;4993912;28;20030;-62
2021/04/01 10:57:12;;;;;;;56.40;31.45;;;23.20;30.10;;;;;;4995089;28;20606;-62
2021/04/01 10:59:47;;;;;;;57.15;31.60;;;23.40;30.00;;;;;;4992709;28;20411;-62
2021/04/01 11:02:20;;;;;;;55.47;31.75;;;23.80;40.70;;;;;;4996040;28;20121;-61
2021/04/01 11:04:54;;;;;;;54.88;31.38;;;23.60;29.70;;;;;;4992237;28;20113;-62
2021/04/01 11:07:20;;;;;;;51.25;29.65;;;23.70;33.30;;;;;;5000239;28;20053;-62
2021/04/01 11:09:49;;;;;;;53.25;31.48;;;23.60;35.80;;;;;;4999051;28;20411;-62
2021/04/01 11:12:20;;;;;;;52.75;31.00;;;23.60;38.50;;;;;;4992243;28;20045;-61
2021/04/01 11:14:50;;;;;;;55.65;30.13;;;23.90;38.50;;;;;;4998691;28;20050;-61
2021/04/01 11:17:18;;;;;;;52.38;31.02;;;24.00;40.50;;;;;;4991834;28;20041;-62
2021/04/01 11:19:46;;;;;;;54.17;29.95;;;23.80;36.40;;;;;;5001410;28;20050;-61
2021/04/01 11:22:12;;;;;;;56.95;31.08;;;23.70;36.10;;;;;;4992105;28;20109;-61
2021/04/01 11:24:39;;;;;;;60.33;30.80;;;23.70;35.80;;;;;;4998517;28;20591;-62
2021/04/01 11:27:17;;;;;;;58.00;29.65;;;23.70;35.30;;;;;;5010140;28;20058;-61
2021/04/01 11:29:51;;;;;;;48.58;26.17;;;23.70;35.40;;;;;;4997548;28;20038;-61
2021/04/01 11:32:23;;;;;;;45.78;25.23;;;23.80;35.10;;;;;;4989281;28;21123;-61
2021/04/01 11:34:52;;;;;;;44.72;23.58;;;23.90;35.30;;;;;;4998572;28;20041;-61
2021/04/01 11:37:21;;;;;;;49.53;26.13;;;24.40;27.30;;;;;;4988362;28;20041;-61
2021/04/01 11:39:48;;;;;;;42.92;23.08;;;24.40;27.60;;;;;;4994032;28;20035;-61
2021/04/01 11:42:16;;;;;;;40.55;21.35;;;24.30;27.70;;;;;;4992281;28;20054;-61
2021/04/01 11:44:43;;;;;;;43.72;23.15;;;24.40;27.10;;;;;;4994424;28;20038;-61
2021/04/01 11:47:14;;;;;;;40.13;22.17;;;24.50;27.30;;;;;;4991433;28;20046;-61
2021/04/01 11:49:39;;;;;;;31.65;19.65;;;24.40;26.70;;;;;;4994740;28;20034;-62
2021/04/01 11:52:12;;;;;;;38.45;19.75;;;24.80;41.30;;;;;;4989554;28;20048;-61
2021/04/01 11:54:38;;;;;;;32.22;19.13;;;24.80;28.40;;;;;;4992109;28;20104;-61
2021/04/01 11:57:22;;;;;;;36.10;20.85;;;24.90;27.00;;;;;;4996909;28;20112;-61
2021/04/01 11:59:55;;;;;;;33.78;19.33;;;25.10;26.10;;;;;;4997396;28;20100;-62
2021/04/01 12:02:22;;;;;;;32.67;17.88;;;25.20;25.90;;;;;;4994421;28;20073;-62
2021/04/01 12:04:49;;;;;;;26.83;17.27;;;25.40;25.20;;;;;;4994329;28;20061;-61
2021/04/01 12:07:15;;;;;;;28.05;15.50;;;28.50;22.20;;;;;;4994563;28;20415;-61
2021/04/01 12:09:45;;;;;;;31.60;17.80;;;31.90;19.30;;;;;;4998033;28;20038;-60
2021/04/01 12:12:12;;;;;;;28.52;17.13;;;34.70;19.20;;;;;;4995342;28;20096;-62
2021/04/01 12:14:39;;;;;;;30.48;17.95;;;34.30;18.00;;;;;;4991068;28;20053;-61
2021/04/01 12:17:06;;;;;;;30.63;17.17;;;35.50;17.60;;;;;;4992846;28;20054;-62
2021/04/01 12:19:32;;;;;;;28.35;17.08;;;38.40;16.00;;;;;;4992387;28;20049;-61
2021/04/01 12:22:05;;;;;;;33.35;18.08;;;40.40;15.20;;;;;;4996717;28;20038;-61
2021/04/01 12:24:31;;;;;;;27.02;18.10;;;41.90;13.90;;;;;;4991794;28;20049;-61
2021/04/01 12:26:58;;;;;;;37.65;20.27;;;40.80;13.60;;;;;;4998329;28;20150;-61
2021/04/01 12:29:25;;;;;;;35.72;18.50;;;41.60;13.90;;;;;;4989939;28;20042;-62
2021/04/01 12:31:54;;;;;;;31.05;19.48;;;42.30;13.10;;;;;;4994814;28;20029;-62
2021/04/01 12:34:31;;;;;;;34.67;20.85;;;42.90;13.50;;;;;;4988257;28;20736;-63
2021/04/01 12:37:02;;;;;;;35.33;21.35;;;42.50;12.70;;;;;;4992351;28;20523;-62
2021/04/01 12:39:30;;;;;;;31.63;20.90;;;40.80;13.10;;;;;;4991450;28;20036;-61
2021/04/01 12:41:56;;;;;;;38.47;22.00;;;42.10;13.90;;;;;;4993513;28;20348;-62
2021/04/01 12:44:39;;;;;;;32.15;20.95;;;42.30;13.50;;;;;;4990295;28;20049;-63
2021/04/01 12:47:06;;;;;;;32.28;20.75;;;42.60;12.90;;;;;;4973576;28;20049;-62
2021/04/01 12:49:33;;;;;;;32.58;19.38;;;41.20;13.30;;;;;;4990669;28;20042;-63
2021/04/01 12:52:02;;;;;;;33.83;20.05;;;40.50;13.20;;;;;;4996871;28;20050;-62
2021/04/01 12:54:32;;;;;;;32.55;19.10;;;41.60;13.50;;;;;;4989393;28;20046;-61
2021/04/01 12:57:10;;;;;;;38.47;18.35;;;41.40;12.60;;;;;;4995644;28;20088;-62
2021/04/01 12:59:40;;;;;;;27.60;16.85;;;40.70;12.20;;;;;;4995658;28;20149;-62
2021/04/01 13:02:15;;;;;;;29.08;17.25;;;41.90;12.50;;;;;;4994946;28;20041;-62
2021/04/01 13:04:52;;;;;;;25.90;16.08;;;43.20;12.50;;;;;;4992836;28;20042;-63
2021/04/01 13:09:47;;;;;;;32.10;19.27;;;44.00;11.60;;;;;;4996645;28;20037;-62
2021/04/01 13:12:18;;;;;;;30.00;18.02;;;44.50;11.70;;;;;;4993969;28;20475;-62
2021/04/01 13:14:46;;;;;;;31.05;18.52;;;44.40;11.50;;;;;;4992505;28;20060;-62
2021/04/01 13:17:12;;;;;;;32.58;19.67;;;43.90;12.10;;;;;;4988811;28;20388;-62
2021/04/01 13:19:39;;;;;;;34.17;18.30;;;44.00;11.70;;;;;;4992852;28;20042;-62
2021/04/01 13:22:14;;;;;;;28.20;19.23;;;43.50;11.90;;;;;;4995370;28;20145;-62
2021/04/01 13:27:27;;;;;;;28.52;18.33;;;44.20;11.80;;;;;;4980808;28;20049;-63
2021/04/01 13:29:58;;;;;;;28.55;16.65;;;44.50;11.60;;;;;;4995418;28;20052;-62
2021/04/01 13:32:33;;;;;;;31.60;16.23;;;44.60;11.90;;;;;;4988154;28;20035;-62
2021/04/01 13:35:09;;;;;;;31.77;18.42;;;44.20;11.90;;;;;;4993371;28;20085;-62
2021/04/01 13:37:45;;;;;;;26.38;17.48;;;42.40;12.30;;;;;;4991816;28;20534;-62
2021/04/01 13:40:21;;;;;;;27.63;17.55;;;40.90;12.80;;;;;;4993752;28;20164;-62
2021/04/01 13:42:57;;;;;;;27.42;17.35;;;39.40;12.90;;;;;;4989541;28;20116;-62
2021/04/01 13:45:26;;;;;;;27.13;17.38;;;39.10;12.80;;;;;;4992633;28;20049;-62
2021/04/01 13:48:00;;;;;;;25.23;16.95;;;40.10;12.70;;;;;;4995864;28;20042;-63
2021/04/01 13:50:28;;;;;;;23.27;16.13;;;39.90;12.60;;;;;;4993964;28;20133;-63
2021/04/01 13:55:29;;;;;;;24.55;15.52;;;39.60;12.30;;;;;;4996419;28;20037;-63
2021/04/01 14:11:19;;;;;;;23.05;13.77;;;43.20;11.40;;;;;;4992825;28;20392;-63
2021/04/01 14:13:46;;;;;;;20.17;11.93;;;43.00;11.10;;;;;;4989037;28;20045;-63
2021/04/01 14:16:14;;;;;;;18.88;13.00;;;43.20;11.90;;;;;;4996215;28;20047;-62
2021/04/01 14:18:45;;;;;;;15.82;12.68;;;43.00;11.60;;;;;;4994170;28;20057;-62
2021/04/01 14:21:11;;;;;;;23.27;12.93;;;42.70;11.50;;;;;;4998665;28;20160;-63
2021/04/01 14:23:38;;;;;;;16.63;12.35;;;41.50;12.00;;;;;;4993703;28;20113;-62
2021/04/01 14:28:50;;;;;;;20.65;11.43;;;36.60;13.30;;;;;;4980332;28;20046;-62
2021/04/01 14:31:16;;;;;;;18.02;10.60;;;34.30;13.90;;;;;;5005717;28;20033;-62